PWSweather.com
Personal Weather Stations
Station Observations
KCARIDGE3
Ridgecrest, CA 93555

Ridgecrest, CA 93555

Lat: 35.62083817, Lon: -117.6733017

Elevation: 2315

Station Type:

High Low Average
Temperature 93.0°F33.9°C 67.6°F19.8°C 79.9°F26.6°C
Dew Point 44.2°F6.8°C 24.6°F-4.1°C 37.6°F3.1°C
Winds 15.0 mph 24.1 kmh 0.9 mph 1.4 kmh 6.0 mph S9.7 kmh S
Wind Gusts 17.0 mph27.4 kmh -- 6.0 mph9.7 kmh
Humidity 39% 11% 24%
Pressure -338605.1 mb -338605.1 mb -
Precipitation 0.00 in0.0 mm - -
Hour Temp Dew Point Humidity Winds Wind Gusts Pressure Precip Precip Rate Daily Precip Total
12:02 AM 73.6°F23.1°C 43.5°F6.4°C 34% 8.1 mph SW13.0 kmh SW 10.1 mph16.3 kmh -338605.1 mb - 0.00 in0.0 mm 0.00 in0.0 mm
12:07 AM 73.4°F23.0°C 43.3°F6.3°C 34% 8.9 mph WSW14.3 kmh WSW 11.0 mph17.7 kmh -338605.1 mb - 0.00 in0.0 mm 0.00 in0.0 mm
12:12 AM 73.2°F22.9°C 43.2°F6.2°C 34% 8.1 mph SW13.0 kmh SW 8.9 mph14.3 kmh -338605.1 mb - 0.00 in0.0 mm 0.00 in0.0 mm
12:17 AM 73.2°F22.9°C 43.2°F6.2°C 34% 8.1 mph SW13.0 kmh SW 8.9 mph14.3 kmh -338605.1 mb - 0.00 in0.0 mm 0.00 in0.0 mm
12:22 AM 73.0°F22.8°C 43.0°F6.1°C 34% 8.1 mph SW13.0 kmh SW 10.1 mph16.3 kmh -338605.1 mb - 0.00 in0.0 mm 0.00 in0.0 mm
12:27 AM 73.0°F22.8°C 43.0°F6.1°C 34% 8.1 mph SW13.0 kmh SW 8.9 mph14.3 kmh -338605.1 mb - 0.00 in0.0 mm 0.00 in0.0 mm
12:32 AM 72.9°F22.7°C 42.8°F6.0°C 34% 8.1 mph WSW13.0 kmh WSW 8.1 mph13.0 kmh -338605.1 mb - 0.00 in0.0 mm 0.00 in0.0 mm
12:37 AM 72.9°F22.7°C 42.8°F6.0°C 34% 6.9 mph SW11.1 kmh SW 8.9 mph14.3 kmh -338605.1 mb - 0.00 in0.0 mm 0.00 in0.0 mm
12:42 AM 72.7°F22.6°C 42.6°F5.9°C 34% 6.0 mph SW9.7 kmh SW 6.0 mph9.7 kmh -338605.1 mb - 0.00 in0.0 mm 0.00 in0.0 mm
12:47 AM 72.7°F22.6°C 42.6°F5.9°C 34% 6.0 mph SW9.7 kmh SW 6.9 mph11.1 kmh -338605.1 mb - 0.00 in0.0 mm 0.00 in0.0 mm
12:52 AM 72.3°F22.4°C 42.4°F5.8°C 34% 6.0 mph SW9.7 kmh SW 6.0 mph9.7 kmh -338605.1 mb - 0.00 in0.0 mm 0.00 in0.0 mm
12:57 AM 72.3°F22.4°C 42.4°F5.8°C 34% 6.0 mph SSW9.7 kmh SSW 8.1 mph13.0 kmh -338605.1 mb - 0.00 in0.0 mm 0.00 in0.0 mm
01:02 AM 72.1°F22.3°C 42.3°F5.7°C 34% 6.9 mph SSW11.1 kmh SSW 10.1 mph16.3 kmh -338605.1 mb - 0.00 in0.0 mm 0.00 in0.0 mm
01:07 AM 72.1°F22.3°C 42.3°F5.7°C 34% 6.9 mph SSW11.1 kmh SSW 4.0 mph6.4 kmh -338605.1 mb - 0.00 in0.0 mm 0.00 in0.0 mm
01:12 AM 72.0°F22.2°C 42.1°F5.6°C 34% 6.9 mph SSW11.1 kmh SSW 4.9 mph7.9 kmh -338605.1 mb - 0.00 in0.0 mm 0.00 in0.0 mm
01:17 AM 72.0°F22.2°C 42.1°F5.6°C 34% 6.9 mph SW11.1 kmh SW 8.9 mph14.3 kmh -338605.1 mb - 0.00 in0.0 mm 0.00 in0.0 mm
01:22 AM 71.8°F22.1°C 41.9°F5.5°C 34% 8.1 mph SSW13.0 kmh SSW 6.0 mph9.7 kmh -338605.1 mb - 0.00 in0.0 mm 0.00 in0.0 mm
01:27 AM 71.8°F22.1°C 41.9°F5.5°C 34% 8.1 mph SSW13.0 kmh SSW 4.0 mph6.4 kmh -338605.1 mb - 0.00 in0.0 mm 0.00 in0.0 mm
01:32 AM 71.8°F22.1°C 41.9°F5.5°C 34% 8.1 mph SW13.0 kmh SW 4.9 mph7.9 kmh -338605.1 mb - 0.00 in0.0 mm 0.00 in0.0 mm
01:37 AM 71.4°F21.9°C 41.5°F5.3°C 34% 8.1 mph SW13.0 kmh SW 8.1 mph13.0 kmh -338605.1 mb - 0.00 in0.0 mm 0.00 in0.0 mm
01:42 AM 71.4°F21.9°C 40.8°F4.9°C 33% 6.9 mph SW11.1 kmh SW 6.9 mph11.1 kmh -338605.1 mb - 0.00 in0.0 mm 0.00 in0.0 mm
01:47 AM 71.2°F21.8°C 40.6°F4.8°C 33% 6.9 mph S11.1 kmh S 10.1 mph16.3 kmh -338605.1 mb - 0.00 in0.0 mm 0.00 in0.0 mm
01:52 AM 71.2°F21.8°C 41.4°F5.2°C 34% 6.0 mph SSW9.7 kmh SSW 4.9 mph7.9 kmh -338605.1 mb - 0.00 in0.0 mm 0.00 in0.0 mm
01:57 AM 71.1°F21.7°C 41.4°F5.2°C 34% 6.0 mph SSW9.7 kmh SSW 6.9 mph11.1 kmh -338605.1 mb - 0.00 in0.0 mm 0.00 in0.0 mm
02:02 AM 70.9°F21.6°C 41.2°F5.1°C 34% 6.0 mph SSW9.7 kmh SSW 6.0 mph9.7 kmh -338605.1 mb - 0.00 in0.0 mm 0.00 in0.0 mm
02:07 AM 70.9°F21.6°C 40.3°F4.6°C 33% 6.0 mph S9.7 kmh S 8.1 mph13.0 kmh -338605.1 mb - 0.00 in0.0 mm 0.00 in0.0 mm
02:12 AM 70.9°F21.6°C 41.2°F5.1°C 34% 6.0 mph S9.7 kmh S 6.9 mph11.1 kmh -338605.1 mb - 0.00 in0.0 mm 0.00 in0.0 mm
02:17 AM 70.7°F21.5°C 41.0°F5.0°C 34% 6.9 mph S11.1 kmh S 4.9 mph7.9 kmh -338605.1 mb - 0.00 in0.0 mm 0.00 in0.0 mm
02:22 AM 70.7°F21.5°C 41.0°F5.0°C 34% 6.9 mph SW11.1 kmh SW 10.1 mph16.3 kmh -338605.1 mb - 0.00 in0.0 mm 0.00 in0.0 mm
02:27 AM 70.5°F21.4°C 40.8°F4.9°C 34% 6.9 mph SSW11.1 kmh SSW 6.9 mph11.1 kmh -338605.1 mb - 0.00 in0.0 mm 0.00 in0.0 mm
02:32 AM 70.5°F21.4°C 40.8°F4.9°C 34% 6.9 mph SSW11.1 kmh SSW 8.9 mph14.3 kmh -338605.1 mb - 0.00 in0.0 mm 0.00 in0.0 mm
02:37 AM 70.7°F21.5°C 41.0°F5.0°C 34% 6.9 mph S11.1 kmh S 6.0 mph9.7 kmh -338605.1 mb - 0.00 in0.0 mm 0.00 in0.0 mm
02:42 AM 70.5°F21.4°C 40.8°F4.9°C 34% 6.9 mph SW11.1 kmh SW 8.9 mph14.3 kmh -338605.1 mb - 0.00 in0.0 mm 0.00 in0.0 mm
02:47 AM 70.5°F21.4°C 40.1°F4.5°C 33% 6.9 mph SW11.1 kmh SW 4.9 mph7.9 kmh -338605.1 mb - 0.00 in0.0 mm 0.00 in0.0 mm
02:52 AM 70.5°F21.4°C 40.1°F4.5°C 33% 6.0 mph SSW9.7 kmh SSW 4.9 mph7.9 kmh -338605.1 mb - 0.00 in0.0 mm 0.00 in0.0 mm
02:57 AM 70.3°F21.3°C 39.9°F4.4°C 33% 6.0 mph S9.7 kmh S 8.1 mph13.0 kmh -338605.1 mb - 0.00 in0.0 mm 0.00 in0.0 mm
03:02 AM 70.3°F21.3°C 39.9°F4.4°C 33% 6.0 mph S9.7 kmh S 6.0 mph9.7 kmh -338605.1 mb - 0.00 in0.0 mm 0.00 in0.0 mm
03:07 AM 70.3°F21.3°C 39.9°F4.4°C 33% 6.0 mph SSW9.7 kmh SSW 8.9 mph14.3 kmh -338605.1 mb - 0.00 in0.0 mm 0.00 in0.0 mm
03:12 AM 70.2°F21.2°C 40.5°F4.7°C 34% 6.9 mph SSW11.1 kmh SSW 6.9 mph11.1 kmh -338605.1 mb - 0.00 in0.0 mm 0.00 in0.0 mm
03:17 AM 70.2°F21.2°C 40.5°F4.7°C 34% 6.9 mph SW11.1 kmh SW 6.9 mph11.1 kmh -338605.1 mb - 0.00 in0.0 mm 0.00 in0.0 mm
03:22 AM 70.0°F21.1°C 41.0°F5.0°C 35% 6.9 mph SSW11.1 kmh SSW 6.0 mph9.7 kmh -338605.1 mb - 0.00 in0.0 mm 0.00 in0.0 mm
03:27 AM 69.6°F20.9°C 40.8°F4.9°C 35% 6.9 mph S11.1 kmh S 6.9 mph11.1 kmh -338605.1 mb - 0.00 in0.0 mm 0.00 in0.0 mm
03:32 AM 69.6°F20.9°C 40.8°F4.9°C 35% 6.9 mph SSW11.1 kmh SSW 8.9 mph14.3 kmh -338605.1 mb - 0.00 in0.0 mm 0.00 in0.0 mm
03:37 AM 69.4°F20.8°C 41.4°F5.2°C 36% 6.9 mph SW11.1 kmh SW 12.1 mph19.5 kmh -338605.1 mb - 0.00 in0.0 mm 0.00 in0.0 mm
03:42 AM 69.4°F20.8°C 41.4°F5.2°C 36% 8.1 mph SW13.0 kmh SW 6.9 mph11.1 kmh -338605.1 mb - 0.00 in0.0 mm 0.00 in0.0 mm
03:47 AM 69.4°F20.8°C 40.6°F4.8°C 35% 8.1 mph SW13.0 kmh SW 8.9 mph14.3 kmh -338605.1 mb - 0.00 in0.0 mm 0.00 in0.0 mm
03:52 AM 69.3°F20.7°C 40.5°F4.7°C 35% 8.1 mph SW13.0 kmh SW 10.1 mph16.3 kmh -338605.1 mb - 0.00 in0.0 mm 0.00 in0.0 mm
03:57 AM 69.3°F20.7°C 40.5°F4.7°C 35% 8.1 mph SW13.0 kmh SW 8.1 mph13.0 kmh -338605.1 mb - 0.00 in0.0 mm 0.00 in0.0 mm
04:02 AM 69.3°F20.7°C 41.2°F5.1°C 36% 6.9 mph WSW11.1 kmh WSW 4.9 mph7.9 kmh -338605.1 mb - 0.00 in0.0 mm 0.00 in0.0 mm
04:07 AM 69.1°F20.6°C 41.0°F5.0°C 36% 6.9 mph WSW11.1 kmh WSW 6.9 mph11.1 kmh -338605.1 mb - 0.00 in0.0 mm 0.00 in0.0 mm
04:12 AM 69.1°F20.6°C 41.0°F5.0°C 36% 6.9 mph SW11.1 kmh SW 8.1 mph13.0 kmh -338605.1 mb - 0.00 in0.0 mm 0.00 in0.0 mm
04:17 AM 68.9°F20.5°C 40.8°F4.9°C 36% 6.9 mph SW11.1 kmh SW 13.0 mph20.9 kmh -338605.1 mb - 0.00 in0.0 mm 0.00 in0.0 mm
04:22 AM 68.7°F20.4°C 40.6°F4.8°C 36% 6.9 mph SSW11.1 kmh SSW 6.9 mph11.1 kmh -338605.1 mb - 0.00 in0.0 mm 0.00 in0.0 mm
04:27 AM 68.7°F20.4°C 40.6°F4.8°C 36% 6.9 mph SSW11.1 kmh SSW 6.9 mph11.1 kmh -338605.1 mb - 0.00 in0.0 mm 0.00 in0.0 mm
04:32 AM 68.7°F20.4°C 40.6°F4.8°C 36% 6.9 mph SSW11.1 kmh SSW 6.0 mph9.7 kmh -338605.1 mb - 0.00 in0.0 mm 0.00 in0.0 mm
04:37 AM 68.7°F20.4°C 40.6°F4.8°C 36% 6.9 mph SSW11.1 kmh SSW 6.0 mph9.7 kmh -338605.1 mb - 0.00 in0.0 mm 0.00 in0.0 mm
04:42 AM 68.5°F20.3°C 40.5°F4.7°C 36% 6.0 mph S9.7 kmh S 4.0 mph6.4 kmh -338605.1 mb - 0.00 in0.0 mm 0.00 in0.0 mm
04:47 AM 68.5°F20.3°C 41.2°F5.1°C 37% 6.0 mph S9.7 kmh S 6.9 mph11.1 kmh -338605.1 mb - 0.00 in0.0 mm 0.00 in0.0 mm
04:52 AM 68.5°F20.3°C 41.2°F5.1°C 37% 6.0 mph S9.7 kmh S 8.9 mph14.3 kmh -338605.1 mb - 0.00 in0.0 mm 0.00 in0.0 mm
04:57 AM 68.5°F20.3°C 41.2°F5.1°C 37% 6.0 mph SSW9.7 kmh SSW 4.0 mph6.4 kmh -338605.1 mb - 0.00 in0.0 mm 0.00 in0.0 mm
05:02 AM 68.4°F20.2°C 41.0°F5.0°C 37% 6.0 mph SSW9.7 kmh SSW 6.0 mph9.7 kmh -338605.1 mb - 0.00 in0.0 mm 0.00 in0.0 mm
05:07 AM 68.4°F20.2°C 41.0°F5.0°C 37% 4.9 mph S7.9 kmh S 2.9 mph4.7 kmh -338605.1 mb - 0.00 in0.0 mm 0.00 in0.0 mm
05:12 AM 68.2°F20.1°C 41.0°F5.0°C 37% 4.9 mph SSW7.9 kmh SSW 6.0 mph9.7 kmh -338605.1 mb - 0.00 in0.0 mm 0.00 in0.0 mm
05:17 AM 68.2°F20.1°C 41.5°F5.3°C 38% 6.0 mph SW9.7 kmh SW 4.0 mph6.4 kmh -338605.1 mb - 0.00 in0.0 mm 0.00 in0.0 mm
05:22 AM 68.2°F20.1°C 41.5°F5.3°C 38% 6.0 mph SW9.7 kmh SW 8.9 mph14.3 kmh -338605.1 mb - 0.00 in0.0 mm 0.00 in0.0 mm
05:27 AM 68.0°F20.0°C 41.4°F5.2°C 38% 6.0 mph SW9.7 kmh SW 4.9 mph7.9 kmh -338605.1 mb - 0.00 in0.0 mm 0.00 in0.0 mm
05:32 AM 68.0°F20.0°C 41.4°F5.2°C 38% 4.9 mph SW7.9 kmh SW 8.9 mph14.3 kmh -338605.1 mb - 0.00 in0.0 mm 0.00 in0.0 mm
05:37 AM 67.8°F19.9°C 41.4°F5.2°C 38% 4.9 mph SSW7.9 kmh SSW 6.0 mph9.7 kmh -338605.1 mb - 0.00 in0.0 mm 0.00 in0.0 mm
05:42 AM 67.8°F19.9°C 41.4°F5.2°C 38% 6.0 mph SW9.7 kmh SW 4.0 mph6.4 kmh -338605.1 mb - 0.00 in0.0 mm 0.00 in0.0 mm
05:47 AM 67.8°F19.9°C 41.9°F5.5°C 39% 4.9 mph S7.9 kmh S 6.0 mph9.7 kmh -338605.1 mb - 0.00 in0.0 mm 0.00 in0.0 mm
05:52 AM 67.6°F19.8°C 41.7°F5.4°C 39% 4.9 mph S7.9 kmh S 6.9 mph11.1 kmh -338605.1 mb - 0.00 in0.0 mm 0.00 in0.0 mm
05:57 AM 67.6°F19.8°C 41.7°F5.4°C 39% 6.0 mph SW9.7 kmh SW 4.0 mph6.4 kmh -338605.1 mb - 0.00 in0.0 mm 0.00 in0.0 mm
06:02 AM 67.6°F19.8°C 41.7°F5.4°C 39% 6.9 mph WSW11.1 kmh WSW 4.0 mph6.4 kmh -338605.1 mb - 0.00 in0.0 mm 0.00 in0.0 mm
06:07 AM 67.6°F19.8°C 41.7°F5.4°C 39% 6.0 mph SW9.7 kmh SW 2.0 mph3.2 kmh -338605.1 mb - 0.00 in0.0 mm 0.00 in0.0 mm
06:12 AM 67.6°F19.8°C 41.7°F5.4°C 39% 6.0 mph SW9.7 kmh SW 4.0 mph6.4 kmh -338605.1 mb - 0.00 in0.0 mm 0.00 in0.0 mm
06:17 AM 67.8°F19.9°C 41.9°F5.5°C 39% 6.0 mph SW9.7 kmh SW 2.9 mph4.7 kmh -338605.1 mb - 0.00 in0.0 mm 0.00 in0.0 mm
06:22 AM 68.4°F20.2°C 41.7°F5.4°C 38% 4.9 mph WSW7.9 kmh WSW 4.9 mph7.9 kmh -338605.1 mb - 0.00 in0.0 mm 0.00 in0.0 mm
06:27 AM 68.5°F20.3°C 41.9°F5.5°C 38% 4.9 mph WSW7.9 kmh WSW 4.9 mph7.9 kmh -338605.1 mb - 0.00 in0.0 mm 0.00 in0.0 mm
06:32 AM 68.5°F20.3°C 41.9°F5.5°C 38% 4.0 mph SW6.4 kmh SW 2.9 mph4.7 kmh -338605.1 mb - 0.00 in0.0 mm 0.00 in0.0 mm
06:37 AM 68.9°F20.5°C 42.3°F5.7°C 38% 2.9 mph SW4.7 kmh SW 4.0 mph6.4 kmh -338605.1 mb - 0.00 in0.0 mm 0.00 in0.0 mm
06:42 AM 69.3°F20.7°C 41.9°F5.5°C 37% 2.9 mph SW4.7 kmh SW 2.0 mph3.2 kmh -338605.1 mb - 0.00 in0.0 mm 0.00 in0.0 mm
06:47 AM 69.4°F20.8°C 42.1°F5.6°C 37% 2.9 mph SW4.7 kmh SW 2.9 mph4.7 kmh -338605.1 mb - 0.00 in0.0 mm 0.00 in0.0 mm
06:52 AM 69.8°F21.0°C 42.4°F5.8°C 37% 2.9 mph WSW4.7 kmh WSW 4.9 mph7.9 kmh -338605.1 mb - 0.00 in0.0 mm 0.00 in0.0 mm
06:57 AM 69.6°F20.9°C 42.3°F5.7°C 37% 4.0 mph WSW6.4 kmh WSW 4.9 mph7.9 kmh -338605.1 mb - 0.00 in0.0 mm 0.00 in0.0 mm
07:02 AM 69.3°F20.7°C 41.9°F5.5°C 37% 4.9 mph WSW7.9 kmh WSW 4.9 mph7.9 kmh -338605.1 mb - 0.00 in0.0 mm 0.00 in0.0 mm
07:07 AM 69.1°F20.6°C 41.7°F5.4°C 37% 4.9 mph WSW7.9 kmh WSW 4.9 mph7.9 kmh -338605.1 mb - 0.00 in0.0 mm 0.00 in0.0 mm
07:12 AM 68.7°F20.4°C 41.4°F5.2°C 37% 4.9 mph W7.9 kmh W 4.9 mph7.9 kmh -338605.1 mb - 0.00 in0.0 mm 0.00 in0.0 mm
07:17 AM 68.7°F20.4°C 41.4°F5.2°C 37% 4.0 mph W6.4 kmh W 4.0 mph6.4 kmh -338605.1 mb - 0.00 in0.0 mm 0.00 in0.0 mm
07:22 AM 68.7°F20.4°C 41.4°F5.2°C 37% 4.0 mph W6.4 kmh W 4.9 mph7.9 kmh -338605.1 mb - 0.00 in0.0 mm 0.00 in0.0 mm
07:27 AM 68.7°F20.4°C 42.1°F5.6°C 38% 4.9 mph W7.9 kmh W 4.9 mph7.9 kmh -338605.1 mb - 0.00 in0.0 mm 0.00 in0.0 mm
07:32 AM 69.1°F20.6°C 41.7°F5.4°C 37% 4.0 mph W6.4 kmh W 4.9 mph7.9 kmh -338605.1 mb - 0.00 in0.0 mm 0.00 in0.0 mm
07:37 AM 69.4°F20.8°C 41.4°F5.2°C 36% 4.0 mph W6.4 kmh W 6.0 mph9.7 kmh -338605.1 mb - 0.00 in0.0 mm 0.00 in0.0 mm
07:42 AM 70.0°F21.1°C 42.4°F5.8°C 37% 4.0 mph W6.4 kmh W 4.0 mph6.4 kmh -338605.1 mb - 0.00 in0.0 mm 0.00 in0.0 mm
07:47 AM 70.5°F21.4°C 42.3°F5.7°C 36% 4.0 mph WSW6.4 kmh WSW 4.0 mph6.4 kmh -338605.1 mb - 0.00 in0.0 mm 0.00 in0.0 mm
07:52 AM 71.2°F21.8°C 42.3°F5.7°C 35% 2.9 mph WSW4.7 kmh WSW 2.0 mph3.2 kmh -338605.1 mb - 0.00 in0.0 mm 0.00 in0.0 mm
07:57 AM 72.5°F22.5°C 42.6°F5.9°C 34% 2.0 mph WSW3.2 kmh WSW 2.9 mph4.7 kmh -338605.1 mb - 0.00 in0.0 mm 0.00 in0.0 mm
08:02 AM 72.5°F22.5°C 41.7°F5.4°C 33% 0.9 mph WSW1.4 kmh WSW 2.9 mph4.7 kmh -338605.1 mb - 0.00 in0.0 mm 0.00 in0.0 mm
08:07 AM 72.7°F22.6°C 41.9°F5.5°C 33% 2.0 mph WSW3.2 kmh WSW 2.0 mph3.2 kmh -338605.1 mb - 0.00 in0.0 mm 0.00 in0.0 mm
08:12 AM 72.7°F22.6°C 41.9°F5.5°C 33% 2.9 mph WSW4.7 kmh WSW 4.9 mph7.9 kmh -338605.1 mb - 0.00 in0.0 mm 0.00 in0.0 mm
08:17 AM 73.6°F23.1°C 42.6°F5.9°C 33% 2.9 mph WSW4.7 kmh WSW 2.9 mph4.7 kmh -338605.1 mb - 0.00 in0.0 mm 0.00 in0.0 mm
08:22 AM 73.9°F23.3°C 42.3°F5.7°C 32% 2.0 mph WSW3.2 kmh WSW 2.0 mph3.2 kmh -338605.1 mb - 0.00 in0.0 mm 0.00 in0.0 mm
08:27 AM 74.5°F23.6°C 41.9°F5.5°C 31% 2.9 mph WSW4.7 kmh WSW 2.0 mph3.2 kmh -338605.1 mb - 0.00 in0.0 mm 0.00 in0.0 mm
08:32 AM 74.5°F23.6°C 42.6°F5.9°C 32% 2.9 mph WSW4.7 kmh WSW 2.0 mph3.2 kmh -338605.1 mb - 0.00 in0.0 mm 0.00 in0.0 mm
08:37 AM 74.7°F23.7°C 42.1°F5.6°C 31% 2.0 mph W3.2 kmh W 0.9 mph1.4 kmh -338605.1 mb - 0.00 in0.0 mm 0.00 in0.0 mm
08:42 AM 74.7°F23.7°C 42.8°F6.0°C 32% 2.0 mph W3.2 kmh W 4.0 mph6.4 kmh -338605.1 mb - 0.00 in0.0 mm 0.00 in0.0 mm
08:47 AM 75.0°F23.9°C 42.3°F5.7°C 31% 2.9 mph W4.7 kmh W 2.9 mph4.7 kmh -338605.1 mb - 0.00 in0.0 mm 0.00 in0.0 mm
08:52 AM 75.6°F24.2°C 42.8°F6.0°C 31% 2.9 mph WNW4.7 kmh WNW 2.9 mph4.7 kmh -338605.1 mb - 0.00 in0.0 mm 0.00 in0.0 mm
08:57 AM 75.7°F24.3°C 43.0°F6.1°C 31% 2.9 mph WNW4.7 kmh WNW 2.0 mph3.2 kmh -338605.1 mb - 0.00 in0.0 mm 0.00 in0.0 mm
09:02 AM 75.7°F24.3°C 43.0°F6.1°C 31% 2.0 mph WNW3.2 kmh WNW 2.0 mph3.2 kmh -338605.1 mb - 0.00 in0.0 mm 0.00 in0.0 mm
09:07 AM 76.3°F24.6°C 43.3°F6.3°C 31% 2.0 mph WNW3.2 kmh WNW 0.9 mph1.4 kmh -338605.1 mb - 0.00 in0.0 mm 0.00 in0.0 mm
09:12 AM 77.2°F25.1°C 43.3°F6.3°C 30% 2.0 mph WNW3.2 kmh WNW -- -338605.1 mb - 0.00 in0.0 mm 0.00 in0.0 mm
09:17 AM 77.7°F25.4°C 43.0°F6.1°C 29% 0.9 mph N1.4 kmh N 2.9 mph4.7 kmh -338605.1 mb - 0.00 in0.0 mm 0.00 in0.0 mm
09:22 AM 79.0°F26.1°C 43.2°F6.2°C 28% 2.0 mph N3.2 kmh N 0.9 mph1.4 kmh -338605.1 mb - 0.00 in0.0 mm 0.00 in0.0 mm
09:27 AM 79.3°F26.3°C 43.3°F6.3°C 28% 0.9 mph N1.4 kmh N 4.0 mph6.4 kmh -338605.1 mb - 0.00 in0.0 mm 0.00 in0.0 mm
09:32 AM 79.9°F26.6°C 43.9°F6.6°C 28% 0.9 mph N1.4 kmh N 2.9 mph4.7 kmh -338605.1 mb - 0.00 in0.0 mm 0.00 in0.0 mm
09:37 AM 80.4°F26.9°C 43.3°F6.3°C 27% 2.9 mph ESE4.7 kmh ESE 4.9 mph7.9 kmh -338605.1 mb - 0.00 in0.0 mm 0.00 in0.0 mm
09:42 AM 80.1°F26.7°C 43.0°F6.1°C 27% 4.0 mph E6.4 kmh E 6.0 mph9.7 kmh -338605.1 mb - 0.00 in0.0 mm 0.00 in0.0 mm
09:47 AM 81.1°F27.3°C 43.0°F6.1°C 26% 2.9 mph NE4.7 kmh NE 2.9 mph4.7 kmh -338605.1 mb - 0.00 in0.0 mm 0.00 in0.0 mm
09:52 AM 81.3°F27.4°C 43.2°F6.2°C 26% 2.9 mph NE4.7 kmh NE 0.9 mph1.4 kmh -338605.1 mb - 0.00 in0.0 mm 0.00 in0.0 mm
09:57 AM 82.0°F27.8°C 43.7°F6.5°C 26% 2.9 mph E4.7 kmh E 4.9 mph7.9 kmh -338605.1 mb - 0.00 in0.0 mm 0.00 in0.0 mm
10:02 AM 82.2°F27.9°C 43.0°F6.1°C 25% 2.9 mph E4.7 kmh E 2.0 mph3.2 kmh -338605.1 mb - 0.00 in0.0 mm 0.00 in0.0 mm
10:07 AM 82.2°F27.9°C 43.0°F6.1°C 25% 2.0 mph E3.2 kmh E -- -338605.1 mb - 0.00 in0.0 mm 0.00 in0.0 mm
10:12 AM 83.1°F28.4°C 42.6°F5.9°C 24% 2.0 mph ESE3.2 kmh ESE 2.9 mph4.7 kmh -338605.1 mb - 0.00 in0.0 mm 0.00 in0.0 mm
10:17 AM 83.5°F28.6°C 43.0°F6.1°C 24% 4.0 mph SE6.4 kmh SE 6.9 mph11.1 kmh -338605.1 mb - 0.00 in0.0 mm 0.00 in0.0 mm
10:22 AM 84.9°F29.4°C 43.0°F6.1°C 23% 4.9 mph E7.9 kmh E 6.0 mph9.7 kmh -338605.1 mb - 0.00 in0.0 mm 0.00 in0.0 mm
10:27 AM 85.6°F29.8°C 42.4°F5.8°C 22% 4.0 mph ENE6.4 kmh ENE 2.0 mph3.2 kmh -338605.1 mb - 0.00 in0.0 mm 0.00 in0.0 mm
10:32 AM 86.4°F30.2°C 44.2°F6.8°C 23% 4.9 mph ENE7.9 kmh ENE 8.1 mph13.0 kmh -338605.1 mb - 0.00 in0.0 mm 0.00 in0.0 mm
10:37 AM 85.8°F29.9°C 42.6°F5.9°C 22% 4.0 mph NE6.4 kmh NE 0.9 mph1.4 kmh -338605.1 mb - 0.00 in0.0 mm 0.00 in0.0 mm
10:42 AM 85.6°F29.8°C 42.4°F5.8°C 22% 2.9 mph SE4.7 kmh SE 4.9 mph7.9 kmh -338605.1 mb - 0.00 in0.0 mm 0.00 in0.0 mm
10:47 AM 86.7°F30.4°C 43.3°F6.3°C 22% 6.0 mph E9.7 kmh E 8.1 mph13.0 kmh -338605.1 mb - 0.00 in0.0 mm 0.00 in0.0 mm
10:52 AM 87.1°F30.6°C 42.4°F5.8°C 21% 6.9 mph ENE11.1 kmh ENE 2.9 mph4.7 kmh -338605.1 mb - 0.00 in0.0 mm 0.00 in0.0 mm
10:57 AM 87.3°F30.7°C 42.6°F5.9°C 21% 6.0 mph E9.7 kmh E 4.0 mph6.4 kmh -338605.1 mb - 0.00 in0.0 mm 0.00 in0.0 mm
11:02 AM 87.4°F30.8°C 42.8°F6.0°C 21% 4.9 mph ESE7.9 kmh ESE 4.9 mph7.9 kmh -338605.1 mb - 0.00 in0.0 mm 0.00 in0.0 mm
11:07 AM 88.2°F31.2°C 42.1°F5.6°C 20% 6.9 mph SE11.1 kmh SE 6.9 mph11.1 kmh -338605.1 mb - 0.00 in0.0 mm 0.00 in0.0 mm
11:12 AM 88.2°F31.2°C 42.1°F5.6°C 20% 6.0 mph E9.7 kmh E -- -338605.1 mb - 0.00 in0.0 mm 0.00 in0.0 mm
11:17 AM 88.3°F31.3°C 42.3°F5.7°C 20% 4.9 mph E7.9 kmh E 6.9 mph11.1 kmh -338605.1 mb - 0.00 in0.0 mm 0.00 in0.0 mm
11:22 AM 88.5°F31.4°C 42.3°F5.7°C 20% 6.0 mph E9.7 kmh E 8.9 mph14.3 kmh -338605.1 mb - 0.00 in0.0 mm 0.00 in0.0 mm
11:27 AM 88.9°F31.6°C 42.6°F5.9°C 20% 6.9 mph E11.1 kmh E 6.9 mph11.1 kmh -338605.1 mb - 0.00 in0.0 mm 0.00 in0.0 mm
11:32 AM 89.1°F31.7°C 41.4°F5.2°C 19% 4.9 mph ESE7.9 kmh ESE 6.9 mph11.1 kmh -338605.1 mb - 0.00 in0.0 mm 0.00 in0.0 mm
11:37 AM 89.8°F32.1°C 39.2°F4.0°C 17% 6.0 mph E9.7 kmh E 2.9 mph4.7 kmh -338605.1 mb - 0.00 in0.0 mm 0.00 in0.0 mm
11:42 AM 90.1°F32.3°C 39.4°F4.1°C 17% 6.9 mph E11.1 kmh E 0.9 mph1.4 kmh -338605.1 mb - 0.00 in0.0 mm 0.00 in0.0 mm
11:47 AM 89.6°F32.0°C 39.0°F3.9°C 17% 6.0 mph SE9.7 kmh SE 4.9 mph7.9 kmh -338605.1 mb - 0.00 in0.0 mm 0.00 in0.0 mm
11:52 AM 89.1°F31.7°C 38.7°F3.7°C 17% 4.9 mph E7.9 kmh E 0.9 mph1.4 kmh -338605.1 mb - 0.00 in0.0 mm 0.00 in0.0 mm
11:57 AM 89.4°F31.9°C 38.8°F3.8°C 17% 6.9 mph ENE11.1 kmh ENE 13.0 mph20.9 kmh -338605.1 mb - 0.00 in0.0 mm 0.00 in0.0 mm
12:02 PM 89.6°F32.0°C 37.4°F3.0°C 16% 8.1 mph ESE13.0 kmh ESE 2.0 mph3.2 kmh -338605.1 mb - 0.00 in0.0 mm 0.00 in0.0 mm
12:07 PM 90.0°F32.2°C 37.8°F3.2°C 16% 6.0 mph ESE9.7 kmh ESE 4.9 mph7.9 kmh -338605.1 mb - 0.00 in0.0 mm 0.00 in0.0 mm
12:12 PM 90.9°F32.7°C 35.1°F1.7°C 14% 6.0 mph S9.7 kmh S 0.9 mph1.4 kmh -338605.1 mb - 0.00 in0.0 mm 0.00 in0.0 mm
12:17 PM 90.9°F32.7°C 36.9°F2.7°C 15% 6.9 mph ESE11.1 kmh ESE 10.1 mph16.3 kmh -338605.1 mb - 0.00 in0.0 mm 0.00 in0.0 mm
12:22 PM 89.8°F32.1°C 34.2°F1.2°C 14% 8.9 mph SSE14.3 kmh SSE 8.9 mph14.3 kmh -338605.1 mb - 0.00 in0.0 mm 0.00 in0.0 mm
12:27 PM 88.5°F31.4°C 33.3°F0.7°C 14% 8.1 mph S13.0 kmh S 6.0 mph9.7 kmh -338605.1 mb - 0.00 in0.0 mm 0.00 in0.0 mm
12:32 PM 89.1°F31.7°C 35.4°F1.9°C 15% 4.9 mph S7.9 kmh S 0.9 mph1.4 kmh -338605.1 mb - 0.00 in0.0 mm 0.00 in0.0 mm
12:37 PM 89.2°F31.8°C 35.6°F2.0°C 15% 4.0 mph SE6.4 kmh SE -- -338605.1 mb - 0.00 in0.0 mm 0.00 in0.0 mm
12:42 PM 89.8°F32.1°C 36.0°F2.2°C 15% 2.9 mph ESE4.7 kmh ESE 4.9 mph7.9 kmh -338605.1 mb - 0.00 in0.0 mm 0.00 in0.0 mm
12:47 PM 90.3°F32.4°C 34.7°F1.5°C 14% 4.9 mph SE7.9 kmh SE 6.0 mph9.7 kmh -338605.1 mb - 0.00 in0.0 mm 0.00 in0.0 mm
12:52 PM 90.0°F32.2°C 36.1°F2.3°C 15% 8.9 mph ESE14.3 kmh ESE 6.9 mph11.1 kmh -338605.1 mb - 0.00 in0.0 mm 0.00 in0.0 mm
12:57 PM 90.9°F32.7°C 36.9°F2.7°C 15% 6.0 mph ESE9.7 kmh ESE 6.9 mph11.1 kmh -338605.1 mb - 0.00 in0.0 mm 0.00 in0.0 mm
01:02 PM 91.4°F33.0°C 35.6°F2.0°C 14% 6.0 mph E9.7 kmh E 8.1 mph13.0 kmh -338605.1 mb - 0.00 in0.0 mm 0.00 in0.0 mm
01:07 PM 91.8°F33.2°C 34.0°F1.1°C 13% 8.9 mph ESE14.3 kmh ESE 10.1 mph16.3 kmh -338605.1 mb - 0.00 in0.0 mm 0.00 in0.0 mm
01:12 PM 91.0°F32.8°C 35.2°F1.8°C 14% 8.1 mph E13.0 kmh E 15.0 mph24.1 kmh -338605.1 mb - 0.00 in0.0 mm 0.00 in0.0 mm
01:17 PM 89.8°F32.1°C 36.0°F2.2°C 15% 10.1 mph E16.3 kmh E 11.0 mph17.7 kmh -338605.1 mb - 0.00 in0.0 mm 0.00 in0.0 mm
01:22 PM 89.2°F31.8°C 35.6°F2.0°C 15% 8.9 mph ENE14.3 kmh ENE 2.0 mph3.2 kmh -338605.1 mb - 0.00 in0.0 mm 0.00 in0.0 mm
01:27 PM 90.0°F32.2°C 36.1°F2.3°C 15% 4.9 mph ESE7.9 kmh ESE 4.9 mph7.9 kmh -338605.1 mb - 0.00 in0.0 mm 0.00 in0.0 mm
01:32 PM 91.0°F32.8°C 35.2°F1.8°C 14% 6.9 mph E11.1 kmh E 6.0 mph9.7 kmh -338605.1 mb - 0.00 in0.0 mm 0.00 in0.0 mm
01:37 PM 91.0°F32.8°C 35.2°F1.8°C 14% 10.1 mph ESE16.3 kmh ESE 6.9 mph11.1 kmh -338605.1 mb - 0.00 in0.0 mm 0.00 in0.0 mm
01:42 PM 90.3°F32.4°C 34.7°F1.5°C 14% 8.1 mph E13.0 kmh E 8.9 mph14.3 kmh -338605.1 mb - 0.00 in0.0 mm 0.00 in0.0 mm
01:47 PM 88.7°F31.5°C 35.1°F1.7°C 15% 8.1 mph E13.0 kmh E 8.1 mph13.0 kmh -338605.1 mb - 0.00 in0.0 mm 0.00 in0.0 mm
01:52 PM 88.2°F31.2°C 34.7°F1.5°C 15% 8.1 mph E13.0 kmh E 8.1 mph13.0 kmh -338605.1 mb - 0.00 in0.0 mm 0.00 in0.0 mm
01:57 PM 88.3°F31.3°C 33.1°F0.6°C 14% 6.0 mph ESE9.7 kmh ESE 4.0 mph6.4 kmh -338605.1 mb - 0.00 in0.0 mm 0.00 in0.0 mm
02:02 PM 89.1°F31.7°C 33.6°F0.9°C 14% 4.9 mph SE7.9 kmh SE 4.9 mph7.9 kmh -338605.1 mb - 0.00 in0.0 mm 0.00 in0.0 mm
02:07 PM 90.1°F32.3°C 32.7°F0.4°C 13% 4.9 mph ESE7.9 kmh ESE 8.1 mph13.0 kmh -338605.1 mb - 0.00 in0.0 mm 0.00 in0.0 mm
02:12 PM 91.2°F32.9°C 33.4°F0.8°C 13% 6.9 mph E11.1 kmh E 0.9 mph1.4 kmh -338605.1 mb - 0.00 in0.0 mm 0.00 in0.0 mm
02:17 PM 91.6°F33.1°C 33.8°F1.0°C 13% 4.9 mph SE7.9 kmh SE 2.0 mph3.2 kmh -338605.1 mb - 0.00 in0.0 mm 0.00 in0.0 mm
02:22 PM 91.0°F32.8°C 31.5°F-0.3°C 12% 2.9 mph ENE4.7 kmh ENE 11.0 mph17.7 kmh -338605.1 mb - 0.00 in0.0 mm 0.00 in0.0 mm
02:27 PM 92.1°F33.4°C 32.2°F0.1°C 12% 6.0 mph ESE9.7 kmh ESE 14.1 mph22.7 kmh -338605.1 mb - 0.00 in0.0 mm 0.00 in0.0 mm
02:32 PM 92.7°F33.7°C 32.7°F0.4°C 12% 8.9 mph ESE14.3 kmh ESE 4.9 mph7.9 kmh -338605.1 mb - 0.00 in0.0 mm 0.00 in0.0 mm
02:37 PM 91.6°F33.1°C 31.8°F-0.1°C 12% 4.9 mph ENE7.9 kmh ENE 2.9 mph4.7 kmh -338605.1 mb - 0.00 in0.0 mm 0.00 in0.0 mm
02:42 PM 90.5°F32.5°C 30.9°F-0.6°C 12% 2.9 mph NE4.7 kmh NE 2.0 mph3.2 kmh -338605.1 mb - 0.00 in0.0 mm 0.00 in0.0 mm
02:47 PM 90.5°F32.5°C 32.9°F0.5°C 13% 4.0 mph S6.4 kmh S 10.1 mph16.3 kmh -338605.1 mb - 0.00 in0.0 mm 0.00 in0.0 mm
02:52 PM 91.0°F32.8°C 33.4°F0.8°C 13% 6.0 mph ESE9.7 kmh ESE 4.9 mph7.9 kmh -338605.1 mb - 0.00 in0.0 mm 0.00 in0.0 mm
02:57 PM 92.1°F33.4°C 34.2°F1.2°C 13% 4.0 mph S6.4 kmh S -- -338605.1 mb - 0.00 in0.0 mm 0.00 in0.0 mm
03:02 PM 92.5°F33.6°C 32.5°F0.3°C 12% 2.0 mph ESE3.2 kmh ESE 2.0 mph3.2 kmh -338605.1 mb - 0.00 in0.0 mm 0.00 in0.0 mm
03:07 PM 91.9°F33.3°C 32.0°F0.0°C 12% 2.0 mph E3.2 kmh E 6.9 mph11.1 kmh -338605.1 mb - 0.00 in0.0 mm 0.00 in0.0 mm
03:12 PM 91.8°F33.2°C 34.0°F1.1°C 13% 4.9 mph E7.9 kmh E 8.1 mph13.0 kmh -338605.1 mb - 0.00 in0.0 mm 0.00 in0.0 mm
03:17 PM 90.7°F32.6°C 33.1°F0.6°C 13% 8.1 mph SE13.0 kmh SE 8.1 mph13.0 kmh -338605.1 mb - 0.00 in0.0 mm 0.00 in0.0 mm
03:22 PM 90.5°F32.5°C 32.9°F0.5°C 13% 8.1 mph S13.0 kmh S 14.1 mph22.7 kmh -338605.1 mb - 0.00 in0.0 mm 0.00 in0.0 mm
03:27 PM 91.0°F32.8°C 33.4°F0.8°C 13% 8.9 mph SE14.3 kmh SE 4.0 mph6.4 kmh -338605.1 mb - 0.00 in0.0 mm 0.00 in0.0 mm
03:32 PM 91.9°F33.3°C 34.2°F1.2°C 13% 6.0 mph SE9.7 kmh SE 13.0 mph20.9 kmh -338605.1 mb - 0.00 in0.0 mm 0.00 in0.0 mm
03:37 PM 91.0°F32.8°C 31.5°F-0.3°C 12% 6.9 mph S11.1 kmh S 6.9 mph11.1 kmh -338605.1 mb - 0.00 in0.0 mm 0.00 in0.0 mm
03:42 PM 90.9°F32.7°C 31.3°F-0.4°C 12% 6.9 mph SSE11.1 kmh SSE 0.9 mph1.4 kmh -338605.1 mb - 0.00 in0.0 mm 0.00 in0.0 mm
03:47 PM 91.6°F33.1°C 33.8°F1.0°C 13% 4.0 mph SE6.4 kmh SE 4.9 mph7.9 kmh -338605.1 mb - 0.00 in0.0 mm 0.00 in0.0 mm
03:52 PM 91.6°F33.1°C 31.8°F-0.1°C 12% 4.9 mph E7.9 kmh E 2.0 mph3.2 kmh -338605.1 mb - 0.00 in0.0 mm 0.00 in0.0 mm
03:57 PM 91.9°F33.3°C 32.0°F0.0°C 12% 4.9 mph E7.9 kmh E 6.0 mph9.7 kmh -338605.1 mb - 0.00 in0.0 mm 0.00 in0.0 mm
04:02 PM 92.7°F33.7°C 32.7°F0.4°C 12% 6.0 mph NE9.7 kmh NE 4.9 mph7.9 kmh -338605.1 mb - 0.00 in0.0 mm 0.00 in0.0 mm
04:07 PM 92.8°F33.8°C 32.7°F0.4°C 12% 6.9 mph ENE11.1 kmh ENE 16.1 mph25.9 kmh -338605.1 mb - 0.00 in0.0 mm 0.00 in0.0 mm
04:12 PM 92.5°F33.6°C 32.5°F0.3°C 12% 8.9 mph SE14.3 kmh SE 6.0 mph9.7 kmh -338605.1 mb - 0.00 in0.0 mm 0.00 in0.0 mm
04:17 PM 92.8°F33.8°C 32.7°F0.4°C 12% 6.9 mph ESE11.1 kmh ESE 4.0 mph6.4 kmh -338605.1 mb - 0.00 in0.0 mm 0.00 in0.0 mm
04:22 PM 93.0°F33.9°C 32.9°F0.5°C 12% 6.9 mph SE11.1 kmh SE 8.9 mph14.3 kmh -338605.1 mb - 0.00 in0.0 mm 0.00 in0.0 mm
04:27 PM 93.0°F33.9°C 32.9°F0.5°C 12% 8.1 mph SE13.0 kmh SE 6.9 mph11.1 kmh -338605.1 mb - 0.00 in0.0 mm 0.00 in0.0 mm
04:32 PM 92.7°F33.7°C 32.7°F0.4°C 12% 8.9 mph E14.3 kmh E 4.9 mph7.9 kmh -338605.1 mb - 0.00 in0.0 mm 0.00 in0.0 mm
04:37 PM 92.7°F33.7°C 32.7°F0.4°C 12% 8.1 mph SW13.0 kmh SW 6.9 mph11.1 kmh -338605.1 mb - 0.00 in0.0 mm 0.00 in0.0 mm
04:42 PM 92.1°F33.4°C 32.2°F0.1°C 12% 6.9 mph SE11.1 kmh SE 8.1 mph13.0 kmh -338605.1 mb - 0.00 in0.0 mm 0.00 in0.0 mm
04:47 PM 90.7°F32.6°C 33.1°F0.6°C 13% 11.0 mph SE17.7 kmh SE 16.1 mph25.9 kmh -338605.1 mb - 0.00 in0.0 mm 0.00 in0.0 mm
04:52 PM 90.7°F32.6°C 31.1°F-0.5°C 12% 13.0 mph SE20.9 kmh SE 8.9 mph14.3 kmh -338605.1 mb - 0.00 in0.0 mm 0.00 in0.0 mm
04:57 PM 90.7°F32.6°C 33.1°F0.6°C 13% 12.1 mph SSE19.5 kmh SSE 14.1 mph22.7 kmh -338605.1 mb - 0.00 in0.0 mm 0.00 in0.0 mm
05:02 PM 90.1°F32.3°C 32.7°F0.4°C 13% 10.1 mph SSE16.3 kmh SSE 8.9 mph14.3 kmh -338605.1 mb - 0.00 in0.0 mm 0.00 in0.0 mm
05:07 PM 90.0°F32.2°C 32.5°F0.3°C 13% 8.1 mph SE13.0 kmh SE 4.9 mph7.9 kmh -338605.1 mb - 0.00 in0.0 mm 0.00 in0.0 mm
05:12 PM 89.4°F31.9°C 32.2°F0.1°C 13% 6.9 mph SE11.1 kmh SE 4.9 mph7.9 kmh -338605.1 mb - 0.00 in0.0 mm 0.00 in0.0 mm
05:17 PM 89.4°F31.9°C 32.2°F0.1°C 13% 6.9 mph E11.1 kmh E 6.9 mph11.1 kmh -338605.1 mb - 0.00 in0.0 mm 0.00 in0.0 mm
05:22 PM 90.1°F32.3°C 30.7°F-0.7°C 12% 6.0 mph ESE9.7 kmh ESE 6.9 mph11.1 kmh -338605.1 mb - 0.00 in0.0 mm 0.00 in0.0 mm
05:27 PM 90.1°F32.3°C 30.7°F-0.7°C 12% 6.0 mph SE9.7 kmh SE 4.9 mph7.9 kmh -338605.1 mb - 0.00 in0.0 mm 0.00 in0.0 mm
05:32 PM 89.6°F32.0°C 32.2°F0.1°C 13% 4.9 mph SE7.9 kmh SE 0.9 mph1.4 kmh -338605.1 mb - 0.00 in0.0 mm 0.00 in0.0 mm
05:37 PM 89.8°F32.1°C 30.4°F-0.9°C 12% 4.9 mph ESE7.9 kmh ESE 14.1 mph22.7 kmh -338605.1 mb - 0.00 in0.0 mm 0.00 in0.0 mm
05:42 PM 89.6°F32.0°C 30.2°F-1.0°C 12% 8.1 mph SE13.0 kmh SE 12.1 mph19.5 kmh -338605.1 mb - 0.00 in0.0 mm 0.00 in0.0 mm
05:47 PM 89.2°F31.8°C 30.0°F-1.1°C 12% 10.1 mph SE16.3 kmh SE 6.9 mph11.1 kmh -338605.1 mb - 0.00 in0.0 mm 0.00 in0.0 mm
05:52 PM 89.6°F32.0°C 30.2°F-1.0°C 12% 8.9 mph ESE14.3 kmh ESE 6.9 mph11.1 kmh -338605.1 mb - 0.00 in0.0 mm 0.00 in0.0 mm
05:57 PM 89.8°F32.1°C 28.2°F-2.1°C 11% 8.9 mph ESE14.3 kmh ESE 4.0 mph6.4 kmh -338605.1 mb - 0.00 in0.0 mm 0.00 in0.0 mm
06:02 PM 89.4°F31.9°C 28.0°F-2.2°C 11% 8.1 mph SE13.0 kmh SE 6.9 mph11.1 kmh -338605.1 mb - 0.00 in0.0 mm 0.00 in0.0 mm
06:07 PM 88.7°F31.5°C 29.7°F-1.3°C 12% 6.0 mph SSE9.7 kmh SSE 6.0 mph9.7 kmh -338605.1 mb - 0.00 in0.0 mm 0.00 in0.0 mm
06:12 PM 88.2°F31.2°C 29.1°F-1.6°C 12% 6.0 mph S9.7 kmh S 4.9 mph7.9 kmh -338605.1 mb - 0.00 in0.0 mm 0.00 in0.0 mm
06:17 PM 87.8°F31.0°C 28.9°F-1.7°C 12% 6.0 mph SSE9.7 kmh SSE 4.0 mph6.4 kmh -338605.1 mb - 0.00 in0.0 mm 0.00 in0.0 mm
06:22 PM 87.3°F30.7°C 28.4°F-2.0°C 12% 6.0 mph S9.7 kmh S 4.9 mph7.9 kmh -338605.1 mb - 0.00 in0.0 mm 0.00 in0.0 mm
06:27 PM 86.9°F30.5°C 28.2°F-2.1°C 12% 4.9 mph S7.9 kmh S 4.0 mph6.4 kmh -338605.1 mb - 0.00 in0.0 mm 0.00 in0.0 mm
06:32 PM 86.4°F30.2°C 27.7°F-2.4°C 12% 6.9 mph S11.1 kmh S 4.9 mph7.9 kmh -338605.1 mb - 0.00 in0.0 mm 0.00 in0.0 mm
06:37 PM 86.0°F30.0°C 25.3°F-3.7°C 11% 8.1 mph S13.0 kmh S 6.9 mph11.1 kmh -338605.1 mb - 0.00 in0.0 mm 0.00 in0.0 mm
06:42 PM 85.6°F29.8°C 27.1°F-2.7°C 12% 6.9 mph S11.1 kmh S 6.0 mph9.7 kmh -338605.1 mb - 0.00 in0.0 mm 0.00 in0.0 mm
06:47 PM 85.5°F29.7°C 27.1°F-2.7°C 12% 6.9 mph S11.1 kmh S 4.9 mph7.9 kmh -338605.1 mb - 0.00 in0.0 mm 0.00 in0.0 mm
06:52 PM 85.3°F29.6°C 27.0°F-2.8°C 12% 6.0 mph S9.7 kmh S 4.0 mph6.4 kmh -338605.1 mb - 0.00 in0.0 mm 0.00 in0.0 mm
06:57 PM 85.3°F29.6°C 27.0°F-2.8°C 12% 4.9 mph S7.9 kmh S 6.0 mph9.7 kmh -338605.1 mb - 0.00 in0.0 mm 0.00 in0.0 mm
07:02 PM 84.9°F29.4°C 24.6°F-4.1°C 11% 6.0 mph SSW9.7 kmh SSW 11.0 mph17.7 kmh -338605.1 mb - 0.00 in0.0 mm 0.00 in0.0 mm
07:07 PM 84.7°F29.3°C 26.4°F-3.1°C 12% 8.1 mph SSE13.0 kmh SSE 10.1 mph16.3 kmh -338605.1 mb - 0.00 in0.0 mm 0.00 in0.0 mm
07:12 PM 84.6°F29.2°C 26.4°F-3.1°C 12% 8.9 mph S14.3 kmh S 11.0 mph17.7 kmh -338605.1 mb - 0.00 in0.0 mm 0.00 in0.0 mm
07:17 PM 84.6°F29.2°C 26.4°F-3.1°C 12% 8.9 mph S14.3 kmh S 6.9 mph11.1 kmh -338605.1 mb - 0.00 in0.0 mm 0.00 in0.0 mm
07:22 PM 84.4°F29.1°C 26.2°F-3.2°C 12% 6.9 mph S11.1 kmh S 6.0 mph9.7 kmh -338605.1 mb - 0.00 in0.0 mm 0.00 in0.0 mm
07:27 PM 84.0°F28.9°C 25.9°F-3.4°C 12% 6.0 mph S9.7 kmh S 6.0 mph9.7 kmh -338605.1 mb - 0.00 in0.0 mm 0.00 in0.0 mm
07:32 PM 83.8°F28.8°C 25.9°F-3.4°C 12% 6.0 mph S9.7 kmh S 4.9 mph7.9 kmh -338605.1 mb - 0.00 in0.0 mm 0.00 in0.0 mm
07:37 PM 83.7°F28.7°C 27.7°F-2.4°C 13% 4.9 mph S7.9 kmh S 4.9 mph7.9 kmh -338605.1 mb - 0.00 in0.0 mm 0.00 in0.0 mm
07:42 PM 83.5°F28.6°C 27.5°F-2.5°C 13% 4.0 mph S6.4 kmh S 4.9 mph7.9 kmh -338605.1 mb - 0.00 in0.0 mm 0.00 in0.0 mm
07:47 PM 83.3°F28.5°C 27.3°F-2.6°C 13% 4.0 mph S6.4 kmh S 2.9 mph4.7 kmh -338605.1 mb - 0.00 in0.0 mm 0.00 in0.0 mm
07:52 PM 83.1°F28.4°C 27.1°F-2.7°C 13% 2.9 mph S4.7 kmh S 2.0 mph3.2 kmh -338605.1 mb - 0.00 in0.0 mm 0.00 in0.0 mm
07:57 PM 82.8°F28.2°C 27.0°F-2.8°C 13% 2.0 mph S3.2 kmh S 2.9 mph4.7 kmh -338605.1 mb - 0.00 in0.0 mm 0.00 in0.0 mm
08:02 PM 82.6°F28.1°C 28.6°F-1.9°C 14% 2.0 mph S3.2 kmh S 2.9 mph4.7 kmh -338605.1 mb - 0.00 in0.0 mm 0.00 in0.0 mm
08:07 PM 82.2°F27.9°C 28.2°F-2.1°C 14% 2.9 mph S4.7 kmh S 2.9 mph4.7 kmh -338605.1 mb - 0.00 in0.0 mm 0.00 in0.0 mm
08:12 PM 82.0°F27.8°C 28.2°F-2.1°C 14% 2.9 mph S4.7 kmh S 2.9 mph4.7 kmh -338605.1 mb - 0.00 in0.0 mm 0.00 in0.0 mm
08:17 PM 81.9°F27.7°C 28.0°F-2.2°C 14% 2.9 mph S4.7 kmh S 4.9 mph7.9 kmh -338605.1 mb - 0.00 in0.0 mm 0.00 in0.0 mm
08:22 PM 81.5°F27.5°C 27.7°F-2.4°C 14% 4.0 mph S6.4 kmh S 2.0 mph3.2 kmh -338605.1 mb - 0.00 in0.0 mm 0.00 in0.0 mm
08:27 PM 81.1°F27.3°C 30.7°F-0.7°C 16% 2.9 mph S4.7 kmh S 2.9 mph4.7 kmh -338605.1 mb - 0.00 in0.0 mm 0.00 in0.0 mm
08:32 PM 81.0°F27.2°C 32.0°F0.0°C 17% 2.9 mph S4.7 kmh S 2.0 mph3.2 kmh -338605.1 mb - 0.00 in0.0 mm 0.00 in0.0 mm
08:37 PM 80.8°F27.1°C 33.3°F0.7°C 18% 2.9 mph S4.7 kmh S 2.0 mph3.2 kmh -338605.1 mb - 0.00 in0.0 mm 0.00 in0.0 mm
08:42 PM 80.2°F26.8°C 35.6°F2.0°C 20% 2.9 mph S4.7 kmh S 4.9 mph7.9 kmh -338605.1 mb - 0.00 in0.0 mm 0.00 in0.0 mm
08:47 PM 79.9°F26.6°C 37.6°F3.1°C 22% 4.9 mph SSE7.9 kmh SSE 8.1 mph13.0 kmh -338605.1 mb - 0.00 in0.0 mm 0.00 in0.0 mm
08:52 PM 79.5°F26.4°C 37.4°F3.0°C 22% 6.0 mph S9.7 kmh S 4.0 mph6.4 kmh -338605.1 mb - 0.00 in0.0 mm 0.00 in0.0 mm
08:57 PM 79.5°F26.4°C 38.5°F3.6°C 23% 4.9 mph WSW7.9 kmh WSW 8.9 mph14.3 kmh -338605.1 mb - 0.00 in0.0 mm 0.00 in0.0 mm
09:02 PM 79.3°F26.3°C 38.3°F3.5°C 23% 6.0 mph W9.7 kmh W 6.0 mph9.7 kmh -338605.1 mb - 0.00 in0.0 mm 0.00 in0.0 mm
09:07 PM 80.2°F26.8°C 39.0°F3.9°C 23% 6.9 mph W11.1 kmh W 6.9 mph11.1 kmh -338605.1 mb - 0.00 in0.0 mm 0.00 in0.0 mm
09:12 PM 79.9°F26.6°C 37.6°F3.1°C 22% 6.0 mph WNW9.7 kmh WNW 4.0 mph6.4 kmh -338605.1 mb - 0.00 in0.0 mm 0.00 in0.0 mm
09:17 PM 79.5°F26.4°C 38.5°F3.6°C 23% 4.0 mph WNW6.4 kmh WNW 2.9 mph4.7 kmh -338605.1 mb - 0.00 in0.0 mm 0.00 in0.0 mm
09:22 PM 79.3°F26.3°C 38.3°F3.5°C 23% 2.0 mph WNW3.2 kmh WNW 2.0 mph3.2 kmh -338605.1 mb - 0.00 in0.0 mm 0.00 in0.0 mm
09:27 PM 78.8°F26.0°C 39.0°F3.9°C 24% 2.0 mph WNW3.2 kmh WNW 4.0 mph6.4 kmh -338605.1 mb - 0.00 in0.0 mm 0.00 in0.0 mm
09:32 PM 78.4°F25.8°C 38.7°F3.7°C 24% 2.9 mph WNW4.7 kmh WNW 2.0 mph3.2 kmh -338605.1 mb - 0.00 in0.0 mm 0.00 in0.0 mm
09:37 PM 78.1°F25.6°C 38.3°F3.5°C 24% 2.9 mph WNW4.7 kmh WNW 4.0 mph6.4 kmh -338605.1 mb - 0.00 in0.0 mm 0.00 in0.0 mm
09:42 PM 77.7°F25.4°C 39.0°F3.9°C 25% 4.0 mph WNW6.4 kmh WNW 2.9 mph4.7 kmh -338605.1 mb - 0.00 in0.0 mm 0.00 in0.0 mm
09:47 PM 77.5°F25.3°C 39.0°F3.9°C 25% 2.9 mph WNW4.7 kmh WNW 2.9 mph4.7 kmh -338605.1 mb - 0.00 in0.0 mm 0.00 in0.0 mm
09:52 PM 77.2°F25.1°C 39.6°F4.2°C 26% 2.0 mph WNW3.2 kmh WNW 2.9 mph4.7 kmh -338605.1 mb - 0.00 in0.0 mm 0.00 in0.0 mm
09:57 PM 77.2°F25.1°C 39.6°F4.2°C 26% 2.9 mph WNW4.7 kmh WNW 8.1 mph13.0 kmh -338605.1 mb - 0.00 in0.0 mm 0.00 in0.0 mm
10:02 PM 77.5°F25.3°C 39.0°F3.9°C 25% 8.1 mph W13.0 kmh W 10.1 mph16.3 kmh -338605.1 mb - 0.00 in0.0 mm 0.00 in0.0 mm
10:07 PM 78.3°F25.7°C 39.6°F4.2°C 25% 8.9 mph NW14.3 kmh NW 8.9 mph14.3 kmh -338605.1 mb - 0.00 in0.0 mm 0.00 in0.0 mm
10:12 PM 78.3°F25.7°C 39.6°F4.2°C 25% 6.9 mph W11.1 kmh W 10.1 mph16.3 kmh -338605.1 mb - 0.00 in0.0 mm 0.00 in0.0 mm
10:17 PM 78.1°F25.6°C 39.4°F4.1°C 25% 6.0 mph SW9.7 kmh SW 4.9 mph7.9 kmh -338605.1 mb - 0.00 in0.0 mm 0.00 in0.0 mm
10:22 PM 77.7°F25.4°C 39.0°F3.9°C 25% 6.0 mph W9.7 kmh W 2.0 mph3.2 kmh -338605.1 mb - 0.00 in0.0 mm 0.00 in0.0 mm
10:27 PM 77.4°F25.2°C 39.7°F4.3°C 26% 4.0 mph W6.4 kmh W 2.0 mph3.2 kmh -338605.1 mb - 0.00 in0.0 mm 0.00 in0.0 mm
10:32 PM 77.2°F25.1°C 39.6°F4.2°C 26% 2.9 mph NW4.7 kmh NW 8.1 mph13.0 kmh -338605.1 mb - 0.00 in0.0 mm 0.00 in0.0 mm
10:37 PM 76.8°F24.9°C 39.4°F4.1°C 26% 4.0 mph NW6.4 kmh NW 4.0 mph6.4 kmh -338605.1 mb - 0.00 in0.0 mm 0.00 in0.0 mm
10:42 PM 76.8°F24.9°C 39.4°F4.1°C 26% 6.9 mph WNW11.1 kmh WNW 8.1 mph13.0 kmh -338605.1 mb - 0.00 in0.0 mm 0.00 in0.0 mm
10:47 PM 76.6°F24.8°C 40.1°F4.5°C 27% 10.1 mph WNW16.3 kmh WNW 16.1 mph25.9 kmh -338605.1 mb - 0.00 in0.0 mm 0.00 in0.0 mm
10:52 PM 76.5°F24.7°C 39.9°F4.4°C 27% 13.0 mph NW20.9 kmh NW 15.0 mph24.1 kmh -338605.1 mb - 0.00 in0.0 mm 0.00 in0.0 mm
10:57 PM 76.3°F24.6°C 39.9°F4.4°C 27% 14.1 mph NW22.7 kmh NW 16.1 mph25.9 kmh -338605.1 mb - 0.00 in0.0 mm 0.00 in0.0 mm
11:02 PM 76.3°F24.6°C 39.9°F4.4°C 27% 15.0 mph NNW24.1 kmh NNW 10.1 mph16.3 kmh -338605.1 mb - 0.00 in0.0 mm 0.00 in0.0 mm
11:07 PM 76.1°F24.5°C 40.6°F4.8°C 28% 14.1 mph NW22.7 kmh NW 14.1 mph22.7 kmh -338605.1 mb - 0.00 in0.0 mm 0.00 in0.0 mm
11:12 PM 75.9°F24.4°C 40.5°F4.7°C 28% 15.0 mph NW24.1 kmh NW 14.1 mph22.7 kmh -338605.1 mb - 0.00 in0.0 mm 0.00 in0.0 mm
11:17 PM 75.7°F24.3°C 40.3°F4.6°C 28% 14.1 mph W22.7 kmh W 15.0 mph24.1 kmh -338605.1 mb - 0.00 in0.0 mm 0.00 in0.0 mm
11:22 PM 75.6°F24.2°C 40.1°F4.5°C 28% 13.0 mph WNW20.9 kmh WNW 12.1 mph19.5 kmh -338605.1 mb - 0.00 in0.0 mm 0.00 in0.0 mm
11:27 PM 75.6°F24.2°C 40.1°F4.5°C 28% 13.0 mph NW20.9 kmh NW 13.0 mph20.9 kmh -338605.1 mb - 0.00 in0.0 mm 0.00 in0.0 mm
11:32 PM 75.4°F24.1°C 40.1°F4.5°C 28% 14.1 mph NW22.7 kmh NW 8.9 mph14.3 kmh -338605.1 mb - 0.00 in0.0 mm 0.00 in0.0 mm
11:37 PM 75.4°F24.1°C 40.1°F4.5°C 28% 15.0 mph NW24.1 kmh NW 15.0 mph24.1 kmh -338605.1 mb - 0.00 in0.0 mm 0.00 in0.0 mm
11:42 PM 75.6°F24.2°C 40.1°F4.5°C 28% 15.0 mph NW24.1 kmh NW 17.0 mph27.4 kmh -338605.1 mb - 0.00 in0.0 mm 0.00 in0.0 mm
11:47 PM 75.4°F24.1°C 40.1°F4.5°C 28% 14.1 mph NW22.7 kmh NW 16.1 mph25.9 kmh -338605.1 mb - 0.00 in0.0 mm 0.00 in0.0 mm
11:52 PM 75.6°F24.2°C 40.1°F4.5°C 28% 14.1 mph NW22.7 kmh NW 11.0 mph17.7 kmh -338605.1 mb - 0.00 in0.0 mm 0.00 in0.0 mm
11:57 PM 75.6°F24.2°C 40.1°F4.5°C 28% 14.1 mph NW22.7 kmh NW 13.0 mph20.9 kmh -338605.1 mb - 0.00 in0.0 mm 0.00 in0.0 mm